Time;durP1;ratioP1;P1;durP2;ratioP2;P2;SDS_P1;SDS_P2;PMS_P1;PMS_P2;Temp;Humidity;BMP_temperature;BMP_pressure;BME280_temperature;BME280_humidity;BME280_pressure;Samples;Min_cycle;Max_cycle;Signal;HPM_P1;HPM_P2
2022/05/04 00:00:48;;;;;;;13.52;4.07;;;8.30;99.90;;;;;;5071277;28;20044;-51
2022/05/04 00:03:15;;;;;;;14.75;3.53;;;8.40;99.90;;;;;;5073092;28;20035;-51
2022/05/04 00:05:41;;;;;;;14.27;3.50;;;8.40;99.90;;;;;;5073619;28;20067;-51
2022/05/04 00:08:07;;;;;;;10.07;3.22;;;8.40;99.90;;;;;;5073581;28;20076;-51
2022/05/04 00:10:34;;;;;;;13.02;4.75;;;8.40;99.90;;;;;;5073925;28;20417;-51
2022/05/04 00:13:01;;;;;;;14.38;4.15;;;8.40;99.90;;;;;;5072655;28;20401;-47
2022/05/04 00:15:27;;;;;;;17.20;4.10;;;8.40;99.90;;;;;;5071931;28;20036;-49
2022/05/04 00:17:53;;;;;;;10.23;4.07;;;8.30;99.90;;;;;;5071511;28;20041;-47
2022/05/04 00:20:19;;;;;;;14.68;3.60;;;8.40;99.90;;;;;;5071216;28;20097;-52
2022/05/04 00:22:45;;;;;;;14.95;3.63;;;8.30;99.90;;;;;;5072598;28;20033;-47
2022/05/04 00:25:10;;;;;;;12.23;3.97;;;8.30;99.90;;;;;;5073480;28;20072;-49
2022/05/04 00:27:37;;;;;;;14.13;3.65;;;8.30;99.90;;;;;;5068904;28;20487;-47
2022/05/04 00:30:04;;;;;;;13.70;4.20;;;8.30;99.90;;;;;;5074410;28;20044;-50
2022/05/04 00:32:30;;;;;;;15.65;4.25;;;8.20;99.90;;;;;;5067358;28;20047;-48
2022/05/04 00:34:57;;;;;;;14.23;4.10;;;8.20;99.90;;;;;;5069245;28;20040;-48
2022/05/04 00:37:22;;;;;;;12.68;3.00;;;8.30;99.90;;;;;;5071614;28;20040;-47
2022/05/04 00:39:48;;;;;;;17.63;4.10;;;8.20;99.90;;;;;;5071980;28;20052;-49
2022/05/04 00:42:20;;;;;;;11.32;3.63;;;8.20;99.90;;;;;;5054093;28;20448;-51
2022/05/04 00:44:47;;;;;;;;;;;8.20;99.90;;;;;;5073499;28;20070;-50
2022/05/04 00:47:13;;;;;;;15.25;3.75;;;8.10;99.90;;;;;;5073283;28;19926;-50
2022/05/04 00:49:40;;;;;;;13.68;3.47;;;8.20;99.90;;;;;;5071685;28;20054;-50
2022/05/04 00:52:07;;;;;;;14.70;3.55;;;8.20;99.90;;;;;;5072326;28;20040;-50
2022/05/04 00:54:34;;;;;;;16.58;4.78;;;8.20;99.90;;;;;;5072747;28;20080;-51
2022/05/04 00:57:01;;;;;;;14.55;4.10;;;8.20;99.90;;;;;;5062836;28;20037;-53
2022/05/04 00:59:27;;;;;;;15.80;3.80;;;8.20;99.90;;;;;;5083383;28;20044;-51
2022/05/04 01:01:53;;;;;;;12.45;3.53;;;8.20;99.90;;;;;;5075721;28;20056;-50
2022/05/04 01:04:19;;;;;;;11.00;4.10;;;8.20;99.90;;;;;;5071620;28;20040;-49
2022/05/04 01:06:46;;;;;;;10.35;3.65;;;8.10;99.90;;;;;;5072735;28;20111;-55
2022/05/04 01:09:12;;;;;;;15.18;3.97;;;8.20;99.90;;;;;;5072448;28;20036;-48
2022/05/04 01:11:38;;;;;;;15.60;3.50;;;8.20;99.90;;;;;;5071363;28;20041;-48
2022/05/04 01:14:11;;;;;;;11.05;3.78;;;8.10;99.90;;;;;;5072681;28;20379;-51
2022/05/04 01:16:40;;;;;;;12.07;3.60;;;8.20;99.90;;;;;;5071877;28;20456;-47
2022/05/04 01:19:08;;;;;;;10.57;3.85;;;8.10;99.90;;;;;;5070183;28;20040;-50
2022/05/04 01:21:33;;;;;;;11.90;4.45;;;8.10;99.90;;;;;;5069977;28;20040;-49
2022/05/04 01:24:00;;;;;;;14.52;3.83;;;8.10;99.90;;;;;;5072174;28;20097;-51
2022/05/04 01:26:26;;;;;;;14.32;4.43;;;8.20;99.90;;;;;;5071280;28;20044;-50
2022/05/04 01:28:51;;;;;;;11.30;3.63;;;8.00;99.90;;;;;;5071670;28;20033;-52
2022/05/04 01:31:17;;;;;;;12.73;4.05;;;8.10;99.90;;;;;;5071207;28;20025;-51
2022/05/04 01:33:43;;;;;;;12.23;3.80;;;8.00;99.90;;;;;;5071169;28;20045;-52
2022/05/04 01:36:08;;;;;;;16.15;4.07;;;8.10;99.90;;;;;;5072145;28;20453;-49
2022/05/04 01:38:35;;;;;;;14.13;4.50;;;8.00;99.90;;;;;;5071784;28;20448;-51
2022/05/04 01:41:02;;;;;;;11.18;3.53;;;8.00;99.90;;;;;;5070755;28;20071;-51
2022/05/04 01:43:28;;;;;;;16.20;3.78;;;8.00;99.90;;;;;;5071709;28;20456;-50
2022/05/04 01:45:53;;;;;;;15.65;4.30;;;8.10;99.90;;;;;;5072180;28;20127;-52
2022/05/04 01:48:19;;;;;;;14.63;4.13;;;8.00;99.90;;;;;;5070060;28;20041;-50
2022/05/04 01:50:45;;;;;;;13.25;3.90;;;7.90;99.90;;;;;;5070132;28;20060;-53
2022/05/04 01:53:11;;;;;;;10.13;4.15;;;8.00;99.90;;;;;;5071415;28;20095;-50
2022/05/04 01:55:36;;;;;;;14.68;3.90;;;8.00;99.90;;;;;;5071373;28;20038;-48
2022/05/04 01:58:03;;;;;;;18.42;4.15;;;7.90;99.90;;;;;;5071743;28;20051;-50
2022/05/04 02:00:29;;;;;;;12.75;3.92;;;7.90;99.90;;;;;;5070945;28;20043;-51
2022/05/04 02:02:54;;;;;;;15.68;3.80;;;7.90;99.90;;;;;;5069837;28;20562;-51
2022/05/04 02:05:21;;;;;;;12.00;3.50;;;8.00;99.90;;;;;;5071208;28;20075;-51
2022/05/04 02:07:48;;;;;;;10.07;3.40;;;7.90;99.90;;;;;;5070563;28;20074;-49
2022/05/04 02:10:14;;;;;;;12.73;3.63;;;8.00;99.90;;;;;;5071790;28;20040;-50
2022/05/04 02:12:40;;;;;;;13.75;4.32;;;7.90;99.90;;;;;;5070679;28;20039;-49
2022/05/04 02:15:08;;;;;;;11.98;4.70;;;7.90;99.90;;;;;;5071414;28;20115;-52
2022/05/04 02:17:34;;;;;;;8.90;3.53;;;7.90;99.90;;;;;;5070292;28;20521;-49
2022/05/04 02:20:00;;;;;;;15.43;4.43;;;7.90;99.90;;;;;;5069700;28;20040;-48
2022/05/04 02:22:25;;;;;;;10.25;3.70;;;7.80;99.90;;;;;;5070158;28;20059;-50
2022/05/04 02:24:51;;;;;;;13.05;4.00;;;7.80;99.90;;;;;;5071594;28;20041;-51
2022/05/04 02:27:17;;;;;;;12.32;4.13;;;7.80;99.90;;;;;;5070300;28;20047;-48
2022/05/04 02:29:42;;;;;;;12.20;3.55;;;7.80;99.90;;;;;;5071321;28;20502;-52
2022/05/04 02:32:08;;;;;;;13.85;4.10;;;7.80;99.90;;;;;;5070449;28;20051;-48
2022/05/04 02:34:34;;;;;;;12.65;4.18;;;7.80;99.90;;;;;;5070146;28;20378;-50
2022/05/04 02:39:43;;;;;;;15.10;3.80;;;7.80;99.90;;;;;;5070664;28;20044;-47
2022/05/04 02:42:10;;;;;;;14.32;3.42;;;7.80;99.90;;;;;;5070546;28;20040;-50
2022/05/04 02:44:36;;;;;;;15.88;4.32;;;7.80;99.90;;;;;;5070017;28;20115;-47
2022/05/04 02:47:01;;;;;;;12.25;4.20;;;7.70;99.90;;;;;;5071417;28;20127;-48
2022/05/04 02:49:27;;;;;;;15.27;4.07;;;7.80;99.90;;;;;;5069446;28;20161;-48
2022/05/04 02:51:53;;;;;;;16.92;4.40;;;7.80;99.90;;;;;;5069924;28;20021;-50
2022/05/04 02:54:18;;;;;;;9.85;3.47;;;7.80;99.90;;;;;;5070218;28;20167;-52
2022/05/04 02:56:44;;;;;;;16.70;3.80;;;7.80;99.90;;;;;;5071071;28;20033;-51
2022/05/04 02:59:09;;;;;;;12.02;4.22;;;7.70;99.90;;;;;;5070970;28;20041;-49
2022/05/04 03:04:19;;;;;;;12.75;3.88;;;7.70;99.90;;;;;;5062998;28;20059;-49
2022/05/04 03:06:44;;;;;;;9.93;3.95;;;7.60;99.90;;;;;;5070938;28;20029;-54
2022/05/04 03:09:11;;;;;;;10.63;3.97;;;7.60;99.90;;;;;;5070479;28;20102;-48
2022/05/04 03:11:56;;;;;;;11.00;3.70;;;7.60;99.90;;;;;;5070060;28;20028;-50
2022/05/04 03:14:26;;;;;;;9.77;3.58;;;7.60;99.90;;;;;;5062007;28;20501;-51
2022/05/04 03:16:52;;;;;;;9.35;3.78;;;7.60;99.90;;;;;;5068782;28;20717;-47
2022/05/04 03:19:19;;;;;;;9.18;3.80;;;7.60;99.90;;;;;;5065708;28;20040;-49
2022/05/04 03:21:44;;;;;;;10.32;3.90;;;7.50;99.90;;;;;;5073927;28;20032;-48
2022/05/04 03:24:10;;;;;;;15.63;4.53;;;7.50;99.90;;;;;;5074619;28;20105;-53
2022/05/04 03:26:36;;;;;;;12.77;4.15;;;7.50;99.90;;;;;;5074772;28;20036;-51
2022/05/04 03:29:03;;;;;;;11.93;4.60;;;7.50;99.90;;;;;;5073901;28;20036;-52
2022/05/04 03:31:29;;;;;;;13.02;3.60;;;7.50;99.90;;;;;;5055195;28;20129;-48
2022/05/04 03:33:55;;;;;;;13.10;3.67;;;7.50;99.90;;;;;;5072129;28;20032;-48
2022/05/04 03:36:21;;;;;;;13.05;4.05;;;7.50;99.90;;;;;;5073187;28;20037;-48
2022/05/04 03:38:46;;;;;;;10.70;4.20;;;7.40;99.90;;;;;;5073107;28;20037;-51
2022/05/04 03:41:13;;;;;;;11.95;3.95;;;7.40;99.90;;;;;;5071178;28;20440;-50
2022/05/04 03:43:38;;;;;;;8.63;3.50;;;7.40;99.90;;;;;;5072411;28;20036;-50
2022/05/04 03:46:21;;;;;;;15.70;3.63;;;7.40;99.90;;;;;;5074314;28;20518;-47
2022/05/04 03:48:49;;;;;;;11.85;4.15;;;7.50;99.90;;;;;;5073263;28;20055;-48
2022/05/04 03:51:16;;;;;;;15.02;3.97;;;7.40;99.90;;;;;;5072526;28;20040;-51
2022/05/04 03:53:42;;;;;;;10.95;4.13;;;7.40;99.90;;;;;;5055793;28;20036;-47
2022/05/04 03:56:08;;;;;;;9.38;4.20;;;7.40;99.90;;;;;;5055816;28;20497;-47
2022/05/04 03:58:34;;;;;;;10.13;3.83;;;7.80;99.90;;;;;;5073836;28;20032;-48
2022/05/04 04:01:01;;;;;;;13.30;4.40;;;7.40;99.90;;;;;;5071753;28;20150;-47
2022/05/04 04:03:26;;;;;;;18.67;4.47;;;7.40;99.90;;;;;;5072974;28;20033;-48
2022/05/04 04:05:52;;;;;;;10.50;3.85;;;7.40;99.90;;;;;;5073660;28;20402;-47
2022/05/04 04:08:18;;;;;;;14.52;3.85;;;7.40;99.90;;;;;;5073387;28;20113;-50
2022/05/04 04:10:43;;;;;;;9.75;3.38;;;7.40;99.90;;;;;;5072928;28;20047;-49
2022/05/04 04:13:09;;;;;;;11.25;3.97;;;7.40;99.90;;;;;;5073066;28;20047;-48
2022/05/04 04:15:34;;;;;;;11.50;3.90;;;7.40;99.90;;;;;;5072511;28;20047;-48
2022/05/04 04:18:00;;;;;;;12.98;4.30;;;7.40;99.90;;;;;;5072450;28;20402;-48
2022/05/04 04:23:10;;;;;;;19.83;4.65;;;7.30;99.90;;;;;;5072733;28;20047;-49
2022/05/04 04:25:36;;;;;;;10.43;4.55;;;7.40;99.90;;;;;;5072772;28;20036;-49
2022/05/04 04:28:01;;;;;;;12.60;4.07;;;7.40;99.90;;;;;;5073233;28;20036;-50
2022/05/04 04:30:27;;;;;;;17.73;4.05;;;7.40;99.90;;;;;;5072852;28;20409;-47
2022/05/04 04:32:53;;;;;;;14.30;4.90;;;7.50;99.90;;;;;;5071213;28;20482;-48
2022/05/04 04:35:18;;;;;;;11.77;4.13;;;7.40;99.90;;;;;;5073144;28;20043;-50
2022/05/04 04:37:44;;;;;;;10.85;4.35;;;7.40;99.90;;;;;;5072365;28;20048;-48
2022/05/04 04:40:09;;;;;;;13.93;4.28;;;7.30;99.90;;;;;;5072276;28;20055;-48
2022/05/04 04:42:35;;;;;;;8.30;3.63;;;7.40;99.90;;;;;;5069615;28;20406;-47
2022/05/04 04:45:00;;;;;;;12.13;4.38;;;7.30;99.90;;;;;;5073143;28;20068;-50
2022/05/04 04:47:26;;;;;;;12.93;3.90;;;7.40;99.90;;;;;;5071862;28;20414;-49
2022/05/04 04:49:55;;;;;;;11.43;4.28;;;7.40;99.90;;;;;;5072387;28;20491;-47
2022/05/04 04:52:21;;;;;;;10.30;4.22;;;7.40;99.90;;;;;;5071951;28;20081;-47
2022/05/04 04:54:47;;;;;;;14.88;4.85;;;7.50;99.90;;;;;;5069803;28;20032;-50
2022/05/04 04:57:12;;;;;;;12.93;3.97;;;7.50;99.90;;;;;;5064114;28;20603;-48
2022/05/04 04:59:38;;;;;;;10.20;3.95;;;7.50;99.90;;;;;;5071654;28;20041;-48
2022/05/04 05:02:04;;;;;;;11.70;4.35;;;7.50;99.90;;;;;;5065306;28;20087;-48
2022/05/04 05:04:30;;;;;;;11.55;4.00;;;7.50;99.90;;;;;;5068038;28;20115;-47
2022/05/04 05:06:55;;;;;;;15.77;4.03;;;7.50;99.90;;;;;;5065485;28;20124;-48
2022/05/04 05:09:21;;;;;;;13.00;3.95;;;7.50;99.90;;;;;;5045573;28;20044;-49
2022/05/04 05:11:46;;;;;;;9.48;3.63;;;7.40;99.90;;;;;;5061064;28;20037;-48
2022/05/04 05:16:56;;;;;;;10.02;4.05;;;7.50;99.90;;;;;;5057547;28;20044;-49
2022/05/04 05:19:22;;;;;;;9.45;3.80;;;7.50;99.90;;;;;;5061725;28;20040;-48
2022/05/04 05:21:47;;;;;;;14.68;3.97;;;7.60;99.90;;;;;;5060832;28;20564;-48
2022/05/04 05:24:13;;;;;;;13.32;4.40;;;7.60;99.90;;;;;;5061051;28;20505;-47
2022/05/04 05:26:38;;;;;;;11.43;4.10;;;7.60;99.90;;;;;;5061816;28;20040;-48
2022/05/04 05:29:04;;;;;;;13.43;4.57;;;7.70;99.90;;;;;;5057145;28;20175;-49
2022/05/04 05:31:29;;;;;;;11.63;4.05;;;7.70;99.90;;;;;;5059003;28;20524;-47
2022/05/04 05:33:55;;;;;;;11.35;4.18;;;7.70;99.90;;;;;;5060770;28;20053;-48
2022/05/04 05:36:20;;;;;;;13.80;4.57;;;7.80;99.90;;;;;;5059307;28;20043;-49
2022/05/04 05:38:46;;;;;;;18.20;4.00;;;7.90;99.90;;;;;;5056969;28;20051;-47
2022/05/04 05:41:11;;;;;;;10.43;3.75;;;7.90;99.90;;;;;;5058492;28;20036;-48
2022/05/04 05:43:37;;;;;;;12.98;4.20;;;7.90;99.90;;;;;;5065292;28;20494;-48
2022/05/04 05:46:02;;;;;;;12.48;3.80;;;8.00;99.90;;;;;;5062911;28;20119;-49
2022/05/04 05:48:28;;;;;;;13.70;4.68;;;8.00;99.90;;;;;;5060575;28;20043;-48
2022/05/04 05:50:53;;;;;;;14.10;3.90;;;8.00;99.90;;;;;;5060813;28;20094;-48
2022/05/04 05:53:19;;;;;;;14.45;4.07;;;8.00;99.90;;;;;;5061100;28;20556;-48
2022/05/04 05:55:45;;;;;;;15.20;4.70;;;8.00;99.90;;;;;;5067839;28;20079;-48
2022/05/04 05:58:11;;;;;;;13.90;3.80;;;8.10;99.90;;;;;;5063712;28;20032;-49
2022/05/04 06:00:37;;;;;;;19.48;3.97;;;8.20;99.90;;;;;;5061942;28;20127;-48
2022/05/04 06:03:03;;;;;;;13.02;3.67;;;8.20;99.90;;;;;;5062787;28;20053;-49
2022/05/04 06:05:28;;;;;;;14.10;3.92;;;8.20;99.90;;;;;;5060488;28;20044;-48
2022/05/04 06:07:54;;;;;;;11.63;3.95;;;8.20;99.90;;;;;;5064177;28;20040;-48
2022/05/04 06:10:19;;;;;;;9.85;3.78;;;8.30;99.90;;;;;;5068922;28;20028;-49
2022/05/04 06:12:45;;;;;;;15.50;4.38;;;8.40;99.90;;;;;;5076949;28;20028;-48
2022/05/04 06:15:11;;;;;;;8.55;3.50;;;8.30;99.90;;;;;;5065218;28;20098;-48
2022/05/04 06:17:37;;;;;;;16.50;4.47;;;8.30;99.90;;;;;;5070346;28;20064;-49
2022/05/04 06:20:04;;;;;;;9.85;3.75;;;8.50;99.90;;;;;;5070689;28;20456;-48
2022/05/04 06:22:30;;;;;;;11.13;4.43;;;8.50;99.90;;;;;;5070139;28;20049;-48
2022/05/04 06:24:55;;;;;;;9.82;3.80;;;8.50;99.90;;;;;;5070268;28;20089;-48
2022/05/04 06:27:21;;;;;;;12.98;4.45;;;8.60;99.90;;;;;;5070988;28;20040;-52
2022/05/04 06:35:23;;;;;;;13.80;3.72;;;8.70;99.90;;;;;;5059215;28;20048;-49
2022/05/04 06:37:48;;;;;;;10.75;3.85;;;8.70;99.90;;;;;;5060973;28;20043;-48
2022/05/04 06:40:14;;;;;;;13.65;3.97;;;8.70;99.90;;;;;;5056585;28;20037;-52
2022/05/04 06:42:39;;;;;;;11.95;4.05;;;8.70;99.90;;;;;;5059083;28;20515;-50
2022/05/04 06:45:06;;;;;;;10.75;3.55;;;8.70;99.90;;;;;;5066875;28;20431;-50
2022/05/04 06:47:31;;;;;;;12.90;3.97;;;8.80;99.90;;;;;;5058547;28;20072;-49
2022/05/04 06:49:57;;;;;;;14.77;4.85;;;8.90;99.90;;;;;;5059349;28;20077;-48
2022/05/04 06:52:24;;;;;;;12.20;3.88;;;8.90;99.90;;;;;;5058418;28;20120;-48
2022/05/04 06:54:50;;;;;;;10.40;3.55;;;9.00;99.90;;;;;;5061595;28;20032;-51
2022/05/04 06:57:17;;;;;;;7.78;3.58;;;9.10;99.90;;;;;;5045504;28;20044;-52
2022/05/04 06:59:43;;;;;;;11.15;3.53;;;9.10;99.90;;;;;;5061160;28;20076;-48
2022/05/04 07:02:08;;;;;;;11.18;3.33;;;9.10;99.90;;;;;;5063138;28;20079;-51
2022/05/04 07:04:34;;;;;;;9.82;3.50;;;9.20;99.90;;;;;;5060822;28;20482;-50
2022/05/04 07:07:00;;;;;;;11.65;3.72;;;9.20;99.90;;;;;;5045353;28;20490;-50
2022/05/04 07:09:26;;;;;;;7.55;3.22;;;9.30;99.90;;;;;;5060072;28;20076;-51
2022/05/04 07:11:52;;;;;;;12.02;3.78;;;9.30;99.90;;;;;;5057869;28;20037;-48
2022/05/04 07:14:18;;;;;;;13.07;3.70;;;9.40;99.90;;;;;;5059135;28;20325;-51
2022/05/04 07:16:43;;;;;;;13.05;3.17;;;9.40;99.90;;;;;;5057718;28;20040;-48
2022/05/04 07:19:09;;;;;;;11.60;3.53;;;9.50;99.90;;;;;;5060779;28;20048;-50
2022/05/04 07:21:34;;;;;;;11.45;3.72;;;9.50;99.90;;;;;;5064076;28;20045;-52
2022/05/04 07:24:00;;;;;;;14.60;4.07;;;9.60;99.60;;;;;;5059407;28;20398;-49
2022/05/04 07:26:25;;;;;;;18.42;3.67;;;9.60;98.90;;;;;;5063290;28;20029;-51
2022/05/04 07:28:51;;;;;;;10.88;3.75;;;9.60;98.90;;;;;;5059621;28;20041;-52
2022/05/04 07:31:16;;;;;;;10.63;4.15;;;9.70;99.40;;;;;;5082780;28;20039;-48
2022/05/04 07:33:42;;;;;;;13.85;3.40;;;9.80;99.00;;;;;;5074463;28;20045;-47
2022/05/04 07:36:07;;;;;;;10.30;3.50;;;10.00;98.70;;;;;;5073588;28;20494;-48
2022/05/04 07:38:33;;;;;;;10.10;3.40;;;10.10;98.60;;;;;;5074111;28;20041;-47
2022/05/04 07:43:43;;;;;;;11.82;3.80;;;10.10;97.50;;;;;;5074528;28;20055;-49
2022/05/04 07:46:09;;;;;;;14.35;4.20;;;10.10;97.90;;;;;;5074455;28;20040;-49
2022/05/04 07:48:34;;;;;;;13.10;3.47;;;10.00;98.10;;;;;;5074093;28;20051;-47
2022/05/04 07:51:00;;;;;;;12.55;3.40;;;10.00;98.00;;;;;;5072961;28;20398;-47
2022/05/04 07:53:25;;;;;;;10.07;3.60;;;9.90;98.00;;;;;;5073994;28;20063;-48
2022/05/04 07:55:51;;;;;;;13.07;3.42;;;10.00;98.20;;;;;;5073784;28;20037;-47
2022/05/04 07:58:16;;;;;;;9.77;3.35;;;10.00;97.40;;;;;;5073891;28;20048;-48
2022/05/04 08:06:12;;;;;;;10.82;3.83;;;10.50;97.50;;;;;;5065078;28;20060;-52
2022/05/04 08:08:38;;;;;;;11.15;3.60;;;10.70;97.70;;;;;;5060416;28;20071;-50
2022/05/04 08:11:04;;;;;;;13.18;3.85;;;10.90;96.70;;;;;;5067465;28;20045;-51
2022/05/04 08:13:29;;;;;;;11.52;4.13;;;10.90;96.20;;;;;;5067041;28;20048;-50
2022/05/04 08:15:55;;;;;;;10.60;3.58;;;11.00;95.40;;;;;;5061052;28;20197;-50
2022/05/04 08:18:20;;;;;;;14.23;3.85;;;11.10;95.60;;;;;;5059545;28;20060;-50
2022/05/04 08:20:47;;;;;;;12.93;4.28;;;11.10;94.00;;;;;;5063490;28;20082;-48
2022/05/04 08:23:13;;;;;;;14.23;4.00;;;11.10;94.10;;;;;;5073502;28;20056;-50
2022/05/04 08:25:38;;;;;;;13.88;3.20;;;11.10;94.60;;;;;;5068810;28;20040;-47
2022/05/04 08:28:04;;;;;;;9.57;4.10;;;11.20;95.20;;;;;;5073121;28;20047;-51
2022/05/04 08:30:30;;;;;;;9.48;3.80;;;11.30;95.60;;;;;;5073339;28;20036;-47
2022/05/04 08:32:55;;;;;;;11.30;3.63;;;11.40;95.40;;;;;;5071747;28;20646;-50
2022/05/04 08:35:21;;;;;;;8.70;4.10;;;11.50;95.50;;;;;;5055138;28;20060;-47
2022/05/04 08:37:48;;;;;;;8.88;3.63;;;11.60;95.00;;;;;;5068659;28;20031;-48
2022/05/04 08:40:14;;;;;;;12.45;3.83;;;11.70;95.30;;;;;;5073200;28;20044;-50
2022/05/04 08:42:41;;;;;;;18.45;3.70;;;11.80;94.00;;;;;;5073295;28;20409;-50
2022/05/04 08:45:11;;;;;;;7.85;3.28;;;11.90;93.60;;;;;;5069474;28;20094;-48
2022/05/04 08:47:39;;;;;;;11.05;3.63;;;11.80;93.30;;;;;;5068935;28;20040;-48
2022/05/04 08:50:10;;;;;;;11.38;3.47;;;11.80;93.70;;;;;;5059052;28;20127;-53
2022/05/04 08:52:38;;;;;;;10.95;3.20;;;11.80;93.80;;;;;;5057331;28;20057;-51
2022/05/04 08:55:05;;;;;;;10.73;3.80;;;11.90;94.00;;;;;;5057958;28;20376;-50
2022/05/04 08:57:31;;;;;;;12.65;3.05;;;12.00;93.50;;;;;;5054989;28;20036;-51
2022/05/04 08:59:57;;;;;;;8.20;3.00;;;12.20;93.60;;;;;;5057339;28;20040;-51
2022/05/04 09:02:22;;;;;;;10.20;3.53;;;12.30;90.90;;;;;;5039480;28;20041;-51
2022/05/04 09:04:48;;;;;;;9.77;2.88;;;12.40;89.90;;;;;;5060802;28;20048;-49
2022/05/04 09:07:25;;;;;;;9.23;3.10;;;12.30;89.80;;;;;;5057496;28;20036;-53
2022/05/04 09:09:52;;;;;;;9.10;2.80;;;12.20;90.30;;;;;;5055165;28;20048;-48
2022/05/04 09:12:18;;;;;;;12.43;3.08;;;12.20;91.40;;;;;;5069438;28;20497;-51
2022/05/04 09:14:44;;;;;;;12.32;3.10;;;12.20;91.80;;;;;;5071754;28;20064;-51
2022/05/04 09:17:10;;;;;;;9.07;2.70;;;11.90;91.50;;;;;;5070347;28;20041;-51
2022/05/04 09:19:36;;;;;;;12.80;3.17;;;11.70;91.30;;;;;;5064028;28;20402;-48
2022/05/04 09:22:02;;;;;;;8.55;3.40;;;11.50;92.30;;;;;;5067011;28;20037;-52
2022/05/04 09:24:30;;;;;;;12.20;2.83;;;11.40;92.60;;;;;;5072336;28;20040;-50
2022/05/04 09:26:58;;;;;;;8.77;2.80;;;11.50;92.90;;;;;;5068812;28;20041;-48
2022/05/04 09:29:34;;;;;;;11.38;2.97;;;11.70;93.00;;;;;;5061627;28;20094;-48
2022/05/04 09:32:00;;;;;;;9.43;2.95;;;12.00;93.10;;;;;;5070875;28;20047;-48
2022/05/04 09:34:35;;;;;;;13.13;2.95;;;12.20;92.80;;;;;;5070593;28;20569;-48
2022/05/04 09:45:34;;;;;;;10.05;3.30;;;12.70;79.10;;;;;;5062683;28;20055;-49
2022/05/04 09:48:00;;;;;;;11.73;3.40;;;12.50;80.80;;;;;;5071529;28;20044;-53
2022/05/04 09:50:26;;;;;;;11.63;2.78;;;12.30;83.00;;;;;;5071641;28;20041;-49
2022/05/04 09:52:53;;;;;;;13.52;3.10;;;12.30;82.80;;;;;;5071877;28;20044;-53
2022/05/04 09:55:24;;;;;;;8.45;2.90;;;12.40;82.40;;;;;;5071238;28;20040;-52
2022/05/04 09:57:55;;;;;;;11.82;2.83;;;12.50;83.40;;;;;;5063467;28;20045;-51
2022/05/04 10:00:23;;;;;;;10.75;3.10;;;12.70;83.90;;;;;;5056953;28;20047;-51
2022/05/04 10:02:50;;;;;;;10.02;2.92;;;12.90;85.00;;;;;;5058809;28;20127;-50
2022/05/04 10:05:17;;;;;;;6.82;2.90;;;12.90;84.00;;;;;;5068563;28;20497;-48
2022/05/04 10:07:43;;;;;;;9.90;3.53;;;13.00;80.70;;;;;;5067136;28;20032;-51
2022/05/04 10:10:14;;;;;;;12.30;2.95;;;12.90;79.80;;;;;;5071452;28;20047;-48
2022/05/04 10:12:41;;;;;;;8.75;3.00;;;12.80;81.10;;;;;;5071268;28;20029;-48
2022/05/04 10:15:08;;;;;;;12.10;3.28;;;12.90;77.20;;;;;;5066427;28;20111;-48
2022/05/04 10:17:37;;;;;;;8.45;3.15;;;13.00;77.20;;;;;;5070936;28;20037;-48
2022/05/04 10:20:11;;;;;;;9.27;2.92;;;12.90;78.90;;;;;;5070190;28;20093;-48
2022/05/04 10:22:39;;;;;;;12.48;3.00;;;13.10;79.70;;;;;;5070206;28;20036;-48
2022/05/04 10:25:05;;;;;;;8.90;3.20;;;13.00;77.60;;;;;;5070266;28;20040;-47
2022/05/04 10:27:31;;;;;;;10.95;3.38;;;13.10;78.90;;;;;;5069735;28;20124;-51
2022/05/04 10:32:55;;;;;;;8.18;2.90;;;13.40;74.10;;;;;;5071562;28;20109;-51
2022/05/04 10:35:31;;;;;;;12.05;2.80;;;13.40;71.80;;;;;;5070148;28;20051;-48
2022/05/04 10:37:57;;;;;;;8.55;2.97;;;13.40;70.50;;;;;;5069657;28;20048;-48
2022/05/04 10:40:40;;;;;;;7.28;2.70;;;13.40;69.30;;;;;;5071283;28;20049;-48
2022/05/04 10:43:13;;;;;;;9.05;3.22;;;13.30;68.40;;;;;;5070222;28;20272;-48
2022/05/04 10:45:41;;;;;;;7.57;2.90;;;13.20;68.70;;;;;;5053050;28;20090;-48
2022/05/04 10:48:16;;;;;;;12.38;3.28;;;13.20;70.80;;;;;;5069486;28;20048;-48
2022/05/04 10:50:51;;;;;;;10.48;2.92;;;13.20;71.60;;;;;;5069274;28;20517;-47
2022/05/04 10:53:26;;;;;;;13.18;3.10;;;13.30;74.30;;;;;;5053074;28;20429;-48
2022/05/04 10:56:03;;;;;;;11.15;3.22;;;13.50;76.80;;;;;;5070259;28;20037;-48
2022/05/04 10:58:50;;;;;;;11.60;3.20;;;13.70;73.00;;;;;;5056614;28;20134;-48
2022/05/04 11:01:26;;;;;;;7.95;3.30;;;13.70;73.80;;;;;;5070827;28;20037;-51
2022/05/04 11:04:18;;;;;;;11.38;2.85;;;13.80;73.70;;;;;;5059731;28;20033;-50
2022/05/04 11:06:52;;;;;;;7.72;3.00;;;13.90;69.10;;;;;;5067368;28;20040;-48
2022/05/04 11:09:29;;;;;;;9.05;3.38;;;13.90;67.70;;;;;;5069377;28;20037;-48
2022/05/04 11:12:03;;;;;;;6.88;2.60;;;13.90;69.70;;;;;;5067818;28;20040;-50
2022/05/04 11:14:29;;;;;;;10.05;3.22;;;13.90;69.40;;;;;;5068295;28;20115;-49
2022/05/04 11:16:56;;;;;;;13.52;3.17;;;13.90;67.40;;;;;;5070000;28;20072;-48
2022/05/04 11:19:27;;;;;;;10.82;3.03;;;13.80;68.40;;;;;;5060460;28;20552;-49
2022/05/04 11:21:54;;;;;;;8.68;3.15;;;13.70;67.80;;;;;;5062078;28;20514;-48
2022/05/04 11:24:19;;;;;;;7.15;2.50;;;13.80;67.50;;;;;;5058590;28;20087;-52
2022/05/04 11:26:47;;;;;;;11.25;3.08;;;13.80;66.60;;;;;;5056016;28;20037;-51
2022/05/04 11:29:33;;;;;;;8.88;3.00;;;13.80;66.90;;;;;;5052067;28;20511;-50
2022/05/04 11:32:06;;;;;;;11.57;3.05;;;13.80;68.00;;;;;;5059426;28;20040;-53
2022/05/04 11:34:40;;;;;;;9.25;3.08;;;13.90;69.40;;;;;;5057462;28;20109;-51
2022/05/04 11:37:08;;;;;;;10.63;3.10;;;13.90;67.60;;;;;;5061628;28;20108;-52
2022/05/04 11:39:34;;;;;;;10.82;3.28;;;14.00;67.40;;;;;;5059500;28;20086;-49
2022/05/04 11:42:02;;;;;;;12.48;3.05;;;14.00;67.30;;;;;;5062064;28;20041;-50
2022/05/04 11:44:29;;;;;;;8.65;3.30;;;14.00;66.60;;;;;;5086497;28;20062;-48
2022/05/04 11:46:57;;;;;;;11.73;3.30;;;13.80;66.70;;;;;;5092966;28;20080;-49
2022/05/04 11:49:25;;;;;;;7.38;3.22;;;13.60;66.70;;;;;;5073259;28;20526;-49
2022/05/04 11:51:51;;;;;;;11.60;2.90;;;13.50;69.20;;;;;;5073923;28;20494;-49
2022/05/04 11:54:18;;;;;;;10.23;3.25;;;13.50;70.90;;;;;;5053091;28;20033;-49
2022/05/04 11:56:43;;;;;;;12.20;3.20;;;13.60;72.50;;;;;;5063992;28;20040;-50
2022/05/04 11:59:09;;;;;;;11.70;3.20;;;13.70;73.80;;;;;;5063684;28;20417;-53
2022/05/04 12:01:36;;;;;;;12.07;3.47;;;13.90;74.70;;;;;;5059774;28;20047;-50
2022/05/04 12:04:03;;;;;;;10.15;3.13;;;14.00;75.00;;;;;;5059439;28;20041;-50
2022/05/04 12:06:30;;;;;;;11.70;3.60;;;14.20;77.10;;;;;;5064973;28;20040;-47
2022/05/04 12:08:56;;;;;;;9.38;3.22;;;14.50;75.90;;;;;;5069466;28;20094;-49
2022/05/04 12:11:23;;;;;;;13.10;3.60;;;14.60;72.00;;;;;;5073511;28;20044;-49
2022/05/04 12:13:50;;;;;;;11.57;3.35;;;14.50;67.90;;;;;;5073700;28;20035;-49
2022/05/04 12:16:16;;;;;;;12.70;3.65;;;14.40;70.20;;;;;;5061058;28;20491;-48
2022/05/04 12:18:42;;;;;;;13.25;3.53;;;14.60;68.10;;;;;;5029439;28;20526;-49
2022/05/04 12:21:08;;;;;;;13.50;3.42;;;14.70;67.50;;;;;;5055577;28;20048;-48
2022/05/04 12:23:42;;;;;;;8.80;3.45;;;14.70;64.60;;;;;;5072748;28;20051;-49
2022/05/04 12:26:10;;;;;;;9.88;3.17;;;14.60;65.00;;;;;;5072261;28;20040;-49
2022/05/04 12:28:37;;;;;;;8.93;3.38;;;14.60;68.60;;;;;;5073079;28;20040;-49
2022/05/04 12:33:49;;;;;;;6.38;3.25;;;14.70;69.60;;;;;;5072087;28;20075;-49
2022/05/04 12:36:18;;;;;;;10.57;3.00;;;14.80;70.70;;;;;;5073413;28;20078;-48
2022/05/04 12:38:47;;;;;;;11.88;3.20;;;14.80;69.60;;;;;;5070184;28;20398;-49
2022/05/04 12:41:19;;;;;;;10.75;2.95;;;14.90;66.70;;;;;;5037541;28;20051;-51
2022/05/04 12:43:47;;;;;;;10.75;3.50;;;14.90;68.60;;;;;;5073500;28;20068;-49
2022/05/04 12:46:15;;;;;;;8.77;3.10;;;15.00;63.40;;;;;;5071159;28;20036;-49
2022/05/04 12:48:42;;;;;;;11.18;3.30;;;15.00;62.20;;;;;;5072863;28;20105;-49
2022/05/04 12:51:09;;;;;;;7.45;2.65;;;14.80;63.70;;;;;;5070528;28;20048;-49
2022/05/04 12:53:37;;;;;;;7.20;2.95;;;14.80;64.30;;;;;;5072663;28;20498;-49
2022/05/04 12:58:48;;;;;;;8.70;2.80;;;15.10;66.40;;;;;;5072789;28;20533;-49
2022/05/04 13:01:14;;;;;;;13.48;3.45;;;15.10;65.80;;;;;;5072729;28;20074;-48
2022/05/04 13:03:40;;;;;;;8.25;3.28;;;15.10;62.90;;;;;;5071501;28;20032;-49
2022/05/04 13:06:06;;;;;;;8.80;3.30;;;15.00;62.10;;;;;;5071318;28;20045;-48
2022/05/04 13:08:31;;;;;;;11.35;3.53;;;15.00;63.90;;;;;;5070515;28;20047;-49
2022/05/04 13:10:58;;;;;;;6.57;2.88;;;15.00;64.20;;;;;;5071067;28;20032;-49
2022/05/04 13:13:25;;;;;;;6.57;2.60;;;15.20;64.30;;;;;;5072774;28;20464;-49
2022/05/04 13:15:51;;;;;;;12.57;3.63;;;15.20;63.50;;;;;;5072458;28;20032;-49
2022/05/04 13:18:18;;;;;;;9.95;3.15;;;15.30;63.50;;;;;;5068890;28;20029;-49
2022/05/04 13:20:44;;;;;;;11.25;3.22;;;15.40;62.00;;;;;;5072311;28;20040;-49
2022/05/04 13:23:09;;;;;;;9.20;3.55;;;15.40;64.20;;;;;;5072681;28;20036;-49
2022/05/04 13:25:36;;;;;;;6.50;3.10;;;15.50;66.30;;;;;;5054294;28;20037;-49